Terminal Aerodrome Forecast
Issued by NWS Tampa Bay Area, FL

Home | Current Version | Previous Version | Text Only | Print | Product List | Glossary On
Versions: 1 2 3 4 5 6 7 8 9 10 11 12 13 14 15 16 17
181
FTUS42 KTBW 292320
TAFFMY
TAF
KFMY 292320Z 3000/3024 VRB03KT P6SM VCSH FEW030 SCT100 BKN250
     FM300300 VRB02KT P6SM SCT110 BKN250
     FM301500 24005KT P6SM VCTS SCT025CB SCT120
     FM302100 28007KT P6SM VCTS BKN035CB=

USA.gov is the U.S. government's official web portal to all federal, state and local government web resources and services.